Page d'accueil

actus-iconActualités

À LA UNE 16/06/2018

La Tahiti Moorea Sailing c'est du 22 au 24 juin

En Juin, les marinas de Tahiti sont en pleine effervescence avec l’escale des...

+
31/05/2018

La gare maritime de Uturoa s'équipe de 12 lampadaires solaires

Longtemps inaccessibles de nuit, les sentiers du jardin public de la Gare...

+
30/05/2018

Le port de pêche a reçu la visite de l'association du peuple chinois pour l'amitié avec l'étranger

Le premier vice-président de l’APCAE, Xie Yuan, était accompagné par le...

+
27/05/2018

L'Insigna accostera pour la 1ère fois à Papeete cette semaine

Le MS Insigna est un navire de la flotte de Oceania Cruises. A son bord :...

+
24/05/2018

Marina Taina : Pavillon Bleu pour la 6ème année consécutive

Le palmarès 2018 affiche 18 nouvelles communes, et 9 nouveaux ports de...



Arrivées / Départs

icon
Informations mises à jour le 19/06/2018 18:58:46
filter date navir N° Escale Type Arrivées Départs Port N° Voyage Agent
19/06/2018 - 03:30 ONE TAHI II - PY2380 2018/4999 CABOTEUR 19/06/2018 PAS DE FACTURATION TMT
19/06/2018 - 08:00 SEDNA 2018/5050 YACHT 19/06/2018
19/06/2018 - 09:00 AQUIJO 2018/1747 YACHT 19/06/2018 E S 3 TAHITI OCEAN
19/06/2018 - 16:30 HAWAIKI NUI 2018/5026 CABOTEUR 19/06/2018 P 1 SAS SNP
20/06/2018 - 17:00 TAPORO IX 2018/4970 CABOTEUR 20/06/2018 P 3 CFMT
21/06/2018 - 18:00 TUHAA PAE IV 2018/267 CABOTEUR 21/06/2018 P 4 V12-18 SNA TUHAA PAE
21/06/2018 - 18:00 MSY WIND SPIRIT 2018/184 PAQUEBOT 21/06/2018 E N 2 180621 PST
22/06/2018 - 08:00 CHINA DREAM 2018/5051 YACHT 22/06/2018
22/06/2018 - 17:30 NG ORION 2018/5066 PAQUEBOT 22/06/2018 E N 1 CMA-CGM PAPEETE
23/06/2018 - 22:00 CAP CAPRICORN 2018/1663 CARGO 23/06/2018 LC 3 588 SOTAMA
23/06/2018 - 22:59 PAUL GAUGUIN 2018/2486 PAQUEBOT 23/06/2018 E N 2 PAU180623 PMA
25/06/2018 - 08:00 SOJOURN II 2018/5053 YACHT 25/06/2018
25/06/2018 - 08:00 PATIENCE''' 2018/5055 YACHT 25/06/2018
25/06/2018 - 08:00 AFTERMATH 2018/5052 YACHT 25/06/2018
25/06/2018 - 12:00 MY SURI 2018/1769 YACHT 25/06/2018 E S 4 SEAL SUPERYACHTS
25/06/2018 - 21:00 SEATRADE WHITE 2018/2366 CARGO 25/06/2018 LC 3 V0002 CMA-CGM PAPEETE
25/06/2018 - 22:00 POLYNESIA' 2018/4937 CARGO 25/06/2018 LC 2 V490 AMITAHITI
27/06/2018 - 14:00 MAREVA NUI 2018/2932 CABOTEUR 27/06/2018 P 2 12/2018 TMTO
28/06/2018 - 08:00 ROSEHEARTY 2018/4876 YACHT 28/06/2018 E S 4 TSYS
28/06/2018 - 11:00 BBC MARMARA 2018/4278 CARGO 28/06/2018 LC 3 003W PST
28/06/2018 - 23:00 KIRIBORA 2018/4826 TANKER 28/06/2018 P 1 PST
29/06/2018 - 17:00 MY LATITUDE 2018/4823 YACHT 29/06/2018 P 5 EPI FERRY SUD TRANSAM POLYNESIE
30/06/2018 - 12:00 ARANUI V 2018/3189 CABOTEUR 30/06/2018 E N 2 CPTM
30/06/2018 - 16:00 KAIHATSU MARU 2018/4974 PECHE 30/06/2018 PN PAS SHIPPING AGENCY
30/06/2018 - 23:59 PAUL GAUGUIN 2018/2491 PAQUEBOT 30/06/2018 E N 1 PAU180630 PMA
01/07/2018 - 18:00 MSY WIND SPIRIT 2018/185 PAQUEBOT 01/07/2018 E N 2 180701 PST
02/07/2018 - 21:00 SOUTHERN TRADER 2018/3919 CARGO 02/07/2018 LC 1 1424 TRANSAM POLYNESIE
03/07/2018 - 14:00 TUHAA PAE IV 2018/268 CABOTEUR 03/07/2018 P 4 V13-18 SNA TUHAA PAE
03/07/2018 - 23:30 WIDUKIND 2018/2367 CARGO 03/07/2018 LC 3 V0002 TRANSAM POLYNESIE
06/07/2018 - 22:30 ANL WARRAGUL 2018/1664 CARGO 06/07/2018 LC 3 590 CMA-CGM PAPEETE
07/07/2018 - 23:59 PAUL GAUGUIN 2018/2498 PAQUEBOT 07/07/2018 E N 1 PAU180707 PMA
09/07/2018 - 08:00 FREYA 743500 2018/3475 YACHT 09/07/2018 TSYS
09/07/2018 - 23:30 BOMAR CALAIS 2018/2376 CARGO 09/07/2018 LC 3 V002 CMA-CGM PAPEETE
10/07/2018 - 12:00 TALISMAN' 2018/3425 CARGO 10/07/2018 LC 3 CF820 AMITAHITI
10/07/2018 - 21:00 CAP TAPUTAPU 2018/1671 CARGO 10/07/2018 LC 2 V042 SOTAMA
11/07/2018 - 21:30 SAMOANA 101 2018/4280 CARGO 11/07/2018 LC 2 103W PST
12/07/2018 - 18:00 MSY WIND SPIRIT 2018/186 PAQUEBOT 12/07/2018 E N 2 180712 PST
13/07/2018 - 21:00 PACIFIC ISLANDER II 2018/2565 CARGO 13/07/2018 LC 3 124 PST
16/07/2018 - 18:00 FRENCH POLYNESIA MASTER 2018/4844 PAQUEBOT 16/07/2018 E S 4 AMFU
16/07/2018 - 23:30 SANTA BETTINA 2018/2378 CARGO 16/07/2018 LC 3 V0002 CMA-CGM PAPEETE
18/07/2018 - 23:59 PAUL GAUGUIN 2018/2503 PAQUEBOT 18/07/2018 E N 1 PAU180718 PMA
19/07/2018 - 12:00 ARANUI V 2018/3193 CABOTEUR 19/07/2018 E N 2 CPTM
19/07/2018 - 18:00 TUHAA PAE IV 2018/269 CABOTEUR 19/07/2018 P 4 V14-18 SNA TUHAA PAE
19/07/2018 - 18:00 MSY WIND SPIRIT 2018/187 PAQUEBOT 19/07/2018 E N 2 180719 PST
19/07/2018 - 21:00 SOUTHERN TRADER 2018/3920 CARGO 19/07/2018 LC 1 1425 TRANSAM POLYNESIE
20/07/2018 - 16:00 ASKARI' 2018/4933 YACHT 20/07/2018 PN TAHITI OCEAN
20/07/2018 - 22:00 MELINA' 2018/1078 CARGO 20/07/2018 LC 3 V592 SOTAMA
25/07/2018 - 21:30 BBC MARMARA 2018/4282 CARGO 25/07/2018 LC 2 004W PST
25/07/2018 - 22:00 POLYNESIA EX HANSA S 2018/4865 CARGO 25/07/2018 LC 3 V0003 AMITAHITI
26/07/2018 - 18:00 MSY WIND SPIRIT 2018/188 PAQUEBOT 26/07/2018 E N 2 180726 PST
28/07/2018 - 18:00 TUHAA PAE IV 2018/270 CABOTEUR 28/07/2018 P 4 V15-18 SNA TUHAA PAE
28/07/2018 - 23:59 PAUL GAUGUIN 2018/2510 PAQUEBOT 28/07/2018 E N 1 PAU180728 PMA
29/07/2018 - 21:00 TROPICAL ISLANDER' 2018/3926 CARGO 29/07/2018 LC 3 124 PST
30/07/2018 - 23:30 SEATRADE RED 2018/2379 CARGO 30/07/2018 LC 3 V002 CMA-CGM PAPEETE
02/08/2018 - 18:00 MSY WIND SPIRIT 2018/189 PAQUEBOT 02/08/2018 E N 2 180802 PST
03/08/2018 - 22:30 NORTHERN DEXTERITY 2018/1665 CARGO 03/08/2018 LC 3 594 PST
04/08/2018 - 23:50 PAUL GAUGUIN 2018/2515 PAQUEBOT 04/08/2018 E N 1 PAU180804 PMA
06/08/2018 - 23:30 MV NORDSERENA 2018/2380 CARGO 06/08/2018 LC 3 V002 CMA-CGM PAPEETE
07/08/2018 - 12:00 ARANUI V 2018/3197 CABOTEUR 07/08/2018 E N 2 CPTM
07/08/2018 - 18:00 TUHAA PAE IV 2018/271 CABOTEUR 07/08/2018 P 4 V16-18 SNA TUHAA PAE
09/08/2018 - 18:00 MSY WIND SPIRIT 2018/190 PAQUEBOT 09/08/2018 E N 2 180809 PST
10/08/2018 - 21:00 SOUTHERN TRADER 2018/3922 CARGO 10/08/2018 LC 1 1426 TRANSAM POLYNESIE
11/08/2018 - 22:00 CAP TAPUTAPU 2018/4871 CARGO 11/08/2018 LC 2 V042 SOTAMA
11/08/2018 - 23:59 PAUL GAUGUIN 2018/2520 PAQUEBOT 11/08/2018 E N 1 PAU180811 PMA
13/08/2018 - 22:00 SOUTH ISLANDER 2018/4830 CARGO 13/08/2018 LC 1 124 PST
13/08/2018 - 23:30 AS PETRONIA 2018/2382 CARGO 13/08/2018 LC 3 V003 CMA-CGM PAPEETE
17/08/2018 - 11:00 ALMIRANTE LYNCH 2018/3946 MILITAIRE 17/08/2018 E N 1 TRANSAM POLYNESIE
17/08/2018 - 22:00 KOTA EKSPRES 2018/3991 CARGO 17/08/2018 LC 2 596 SOTAMA
19/08/2018 - 18:00 MSY WIND SPIRIT 2018/191 PAQUEBOT 19/08/2018 E N 2 180819 PST
20/08/2018 - 23:30 CGM POINTE DES SALINES 2018/2383 CARGO 20/08/2018 LC 3 V0003 CMA-CGM PAPEETE
23/08/2018 - 21:00 SOUTHERN TRADER 2018/3923 CARGO 23/08/2018 LC 1 1427 TRANSAM POLYNESIE
25/08/2018 - 12:00 ARANUI V 2018/3372 CABOTEUR 25/08/2018 E N 2 CPTM
25/08/2018 - 14:00 TUHAA PAE IV 2018/272 CABOTEUR 25/08/2018 P 4 V17-18 SNA TUHAA PAE
25/08/2018 - 23:59 PAUL GAUGUIN 2018/2530 PAQUEBOT 25/08/2018 E N 1 PAU180825 PMA
26/08/2018 - 22:00 POLYNESIA EX HANSA S 2018/4867 CARGO 26/08/2018 LC 3 V0003 AMITAHITI
27/08/2018 - 22:00 CORAL ISLANDER II 2018/4831 CARGO 27/08/2018 LC 1 123 PST
27/08/2018 - 23:30 EM CORFU 2018/2390 CARGO 27/08/2018 LC 3 V003 CMA-CGM PAPEETE
30/08/2018 - 17:00 LEGENDE DU VAL 2018/4070 YACHT 30/08/2018 P1 PARTICULIER
30/08/2018 - 18:00 MSY WIND SPIRIT 2018/192 PAQUEBOT 30/08/2018 E N 2 180830 PST
31/08/2018 - 22:00 ANL WARRNAMBOOL 2018/4874 CARGO 31/08/2018 LC 3 598 CMA-CGM PAPEETE
01/09/2018 - 23:59 PAUL GAUGUIN 2018/2536 PAQUEBOT 01/09/2018 E N 1 PAU180901 PMA
03/09/2018 - 23:30 MOEN ISLAND 2018/2391 CARGO 03/09/2018 LC 3 V003 CMA-CGM PAPEETE
06/09/2018 - 18:00 MSY WIND SPIRIT 2018/193 PAQUEBOT 06/09/2018 E N 2 180906 PST
08/09/2018 - 18:00 TUHAA PAE IV 2018/273 CABOTEUR 08/09/2018 P 4 V18-18 SNA TUHAA PAE
08/09/2018 - 22:00 PACIFIC ISLANDER II 2018/4829 CARGO 08/09/2018 LC 1 124 PST
08/09/2018 - 23:59 PAUL GAUGUIN 2018/2541 PAQUEBOT 08/09/2018 E N 1 PAU180908 PMA
09/09/2018 - 23:00 SEA PRINCESS 2018/132 PAQUEBOT 09/09/2018 E S 3 TSMA
10/09/2018 - 21:00 SOUTHERN TRADER 2018/3924 CARGO 10/09/2018 LC 1 1428 TRANSAM POLYNESIE
10/09/2018 - 23:30 SONGA ANTOFAGASTA 2018/2392 CARGO 10/09/2018 LC 3 V003 CMA-CGM PAPEETE
11/09/2018 - 22:00 CAP TAPUTAPU 2018/4872 CARGO 11/09/2018 LC 2 V042 SOTAMA
13/09/2018 - 12:00 ARANUI V 2018/3374 CABOTEUR 13/09/2018 E N 2 CPTM
13/09/2018 - 18:00 MSY WIND SPIRIT 2018/194 PAQUEBOT 13/09/2018 E N 2 180913 PST
14/09/2018 - 22:30 ANL TONGALA 2018/4741 CARGO 14/09/2018 LC 3 800 CMA-CGM PAPEETE
20/09/2018 - 18:00 MSY WIND SPIRIT 2018/195 PAQUEBOT 20/09/2018 E N 2 180920 PST
22/09/2018 - 14:00 TUHAA PAE IV 2018/274 CABOTEUR 22/09/2018 P 4 V20-18 SNA TUHAA PAE
23/09/2018 - 23:59 RADIANCE OF THE SEAS 2018/213 PAQUEBOT 23/09/2018 E S 3 AMFU
27/09/2018 - 18:00 MSY WIND SPIRIT 2018/196 PAQUEBOT 27/09/2018 E N 2 180927 PST
27/09/2018 - 21:00 TROPICAL ISLANDER' 2018/5012 CARGO 27/09/2018 LC 3 125 PST
27/09/2018 - 22:00 POLYNESIA EX HANSA S 2018/4869 CARGO 27/09/2018 LC 3 V0003 AMITAHITI
28/09/2018 - 22:30 CAP CAPRICORN 2018/4743 CARGO 28/09/2018 LC 3 802 SOTAMA
01/10/2018 - 23:59 CARNIVAL LEGEND 2018/14 PAQUEBOT 01/10/2018 E S 3 TSMA
02/10/2018 - 17:41 ARANUI V 2018/3378 CABOTEUR 02/10/2018 E N 2 CPTM
06/10/2018 - 05:00 GOLDEN PRINCESS 2018/70 PAQUEBOT 06/10/2018 E S 3 TSMA
06/10/2018 - 18:00 L'AUSTRAL 2018/171 PAQUEBOT 06/10/2018 E S 3 CMA-CGM PAPEETE
06/10/2018 - 23:59 PAUL GAUGUIN 2018/4883 PAQUEBOT 06/10/2018 E N 1 PAU180901 PMA
07/10/2018 - 18:00 MSY WIND SPIRIT 2018/197 PAQUEBOT 07/10/2018 E N 2 181007 PST
08/10/2018 - 23:59 CELEBRITY SOLSTICE 2018/212 PAQUEBOT 08/10/2018 E S 3 AMFU
09/10/2018 - 18:00 EMERALD PRINCESS 2018/169 PAQUEBOT 09/10/2018 E S 3 TSMA
12/10/2018 - 17:00 SILVER WHISPER 2018/135 PAQUEBOT 12/10/2018 E S 3 CMA-CGM PAPEETE
12/10/2018 - 20:00 MAASDAM 2018/217 PAQUEBOT 12/10/2018 E S 3 PST
12/10/2018 - 22:30 ANL WARRAGUL 2018/4744 CARGO 12/10/2018 LC 3 804 CMA-CGM PAPEETE
13/10/2018 - 22:00 CAP TAPUTAPU 2018/4873 CARGO 13/10/2018 LC 2 V042 SOTAMA
13/10/2018 - 23:59 PAUL GAUGUIN 2018/4885 PAQUEBOT 13/10/2018 E N 1 PAU180901 PMA
18/10/2018 - 18:00 MSY WIND SPIRIT 2018/198 PAQUEBOT 18/10/2018 E N 2 181018 PST
18/10/2018 - 20:00 LE BOREAL 2018/172 PAQUEBOT 18/10/2018 E N 1 CMA-CGM PAPEETE
20/10/2018 - 08:22 ARANUI V 2018/3383 CABOTEUR 20/10/2018 E N 2 CPTM
20/10/2018 - 23:59 PAUL GAUGUIN 2018/4886 PAQUEBOT 20/10/2018 E N 1 PAU180901 PMA
22/10/2018 - 18:00 TUHAA PAE IV 2018/275 CABOTEUR 22/10/2018 P 4 V21-18 SNA TUHAA PAE
25/10/2018 - 18:00 MSY WIND SPIRIT 2018/199 PAQUEBOT 25/10/2018 E N 2 181025 PST
25/10/2018 - 18:00 LE BOREAL 2018/173 PAQUEBOT 25/10/2018 E N 1 CMA-CGM PAPEETE
26/10/2018 - 22:33 MELINA' 2018/4745 CARGO 26/10/2018 LC 3 806 SOTAMA
26/10/2018 - 23:59 MAASDAM 2018/218 PAQUEBOT 26/10/2018 E S 3 PST
27/10/2018 - 22:00 POLYNESIA EX HANSA S 2018/4870 CARGO 27/10/2018 LC 3 V0003 AMITAHITI
01/11/2018 - 04:00 STAR PRINCESS 2018/170 PAQUEBOT 01/11/2018 E S 3 CMA-CGM PAPEETE
01/11/2018 - 18:00 MSY WIND SPIRIT 2018/200 PAQUEBOT 01/11/2018 E N 2 181101 PST
03/11/2018 - 23:59 PAUL GAUGUIN 2018/4887 PAQUEBOT 03/11/2018 E N 1 PAU180103 PMA
05/11/2018 - 18:00 TUHAA PAE IV 2018/276 CABOTEUR 05/11/2018 P 4 V22-18 SNA TUHAA PAE
08/11/2018 - 12:00 ARANUI V 2018/3387 CABOTEUR 08/11/2018 E N 2 CPTM
08/11/2018 - 18:00 MSY WIND SPIRIT 2018/201 PAQUEBOT 08/11/2018 E N 2 181108 PST
09/11/2018 - 23:59 MAASDAM 2018/219 PAQUEBOT 09/11/2018 E S 3 PST
10/11/2018 - 23:59 PAUL GAUGUIN 2018/4891 PAQUEBOT 10/11/2018 E N 1 PAU180103 PMA
11/11/2018 - 22:00 EMERALD PRINCESS 2018/77 PAQUEBOT 11/11/2018 E S 3 TSMA
15/11/2018 - 18:00 MSY WIND SPIRIT 2018/202 PAQUEBOT 15/11/2018 E N 2 181115 PST
15/11/2018 - 20:00 SEVEN SEAS MARINER 2018/149 PAQUEBOT 15/11/2018 E S 3 AMFU
17/11/2018 - 23:59 PAUL GAUGUIN 2018/4892 PAQUEBOT 17/11/2018 E N 1 PAU180103 PMA
19/11/2018 - 19:00 ASTOR 2018/239 PAQUEBOT 19/11/2018 E S 3 CMA-CGM PAPEETE
20/11/2018 - 14:00 TUHAA PAE IV 2018/277 CABOTEUR 20/11/2018 P 4 V23-198 SNA TUHAA PAE
22/11/2018 - 23:59 BREMEN 2018/157 PAQUEBOT 22/11/2018 E N 2 CMA-CGM PAPEETE
23/11/2018 - 23:59 MAASDAM 2018/216 PAQUEBOT 23/11/2018 E S 3 PST
25/11/2018 - 22:00 AIDAAURA 2018/1721 PAQUEBOT 25/11/2018 E S 3 TSMA
26/11/2018 - 18:00 MSY WIND SPIRIT 2018/203 PAQUEBOT 26/11/2018 E N 2 181125 PST
27/11/2018 - 12:00 ARANUI V 2018/3392 CABOTEUR 27/11/2018 E N 2 CPTM
27/11/2018 - 20:00 M/S REGATTA 2018/211 PAQUEBOT 27/11/2018 E S 3 AMFU
28/11/2018 - 23:59 PAUL GAUGUIN 2018/4893 PAQUEBOT 28/11/2018 E N 1 PAU180103 PMA
01/12/2018 - 18:00 TUHAA PAE IV 2018/278 CABOTEUR 01/12/2018 P 4 V24-18 SNA TUHAA PAE
06/12/2018 - 18:00 MSY WIND SPIRIT 2018/204 PAQUEBOT 06/12/2018 E N 2 181206 PST
08/12/2018 - 23:59 PAUL GAUGUIN 2018/4894 PAQUEBOT 08/12/2018 E N 1 PAU180103 PMA
11/12/2018 - 14:00 TUHAA PAE IV 2018/279 CABOTEUR 11/12/2018 P 4 V25-18 SNA TUHAA PAE
13/12/2018 - 18:00 MSY WIND SPIRIT 2018/205 PAQUEBOT 13/12/2018 E N 2 181213 PST
15/12/2018 - 12:00 ARANUI V 2018/3396 CABOTEUR 15/12/2018 E N 2 CPTM
15/12/2018 - 23:59 PAUL GAUGUIN 2018/4895 PAQUEBOT 15/12/2018 E N 1 PAU180103 PMA
18/12/2018 - 18:00 BLACKWATCH 2018/168 PAQUEBOT 18/12/2018 E N 1 TRANSAM POLYNESIE
19/12/2018 - 16:00 JOIDES RESOLUTION 2018/3464 DIVERS 19/12/2018 E S 3 TRANSAM POLYNESIE
20/12/2018 - 18:00 MSY WIND SPIRIT 2018/206 PAQUEBOT 20/12/2018 E N 2 181220 PST
22/12/2018 - 23:59 PAUL GAUGUIN 2018/4896 PAQUEBOT 22/12/2018 E N 1 PAU180103 PMA
27/12/2018 - 18:00 MSY WIND SPIRIT 2018/207 PAQUEBOT 27/12/2018 E N 2 181227 PST
29/12/2018 - 23:59 PAUL GAUGUIN 2018/4897 PAQUEBOT 29/12/2018 E N 1 PAU180103 PMA
03/01/2019 - 18:00 MSY WIND SPIRIT 2019/33 PAQUEBOT 03/01/2019 E N 2 190106 PST
05/01/2019 - 23:59 PAUL GAUGUIN 2019/350 PAQUEBOT 05/01/2019 E N 1 PAU180103 PMA
10/01/2019 - 18:00 MSY WIND SPIRIT 2019/293 PAQUEBOT 10/01/2019 E N 2 PST
12/01/2019 - 23:59 PAUL GAUGUIN 2019/166 PAQUEBOT 12/01/2019 E N 1 PMA
17/01/2019 - 18:00 MSY WIND SPIRIT 2019/294 PAQUEBOT 17/01/2019 E N 2 PST
18/01/2019 - 18:00 SILVER WHISPER 2019/52 PAQUEBOT 18/01/2019 E S 3 CMA-CGM PAPEETE
19/01/2019 - 23:59 PAUL GAUGUIN 2018/2371 PAQUEBOT 19/01/2019 E N 1 PMA
22/01/2019 - 05:00 MS MARINA 2019/40 PAQUEBOT 22/01/2019 E S 3 AMFU
24/01/2019 - 20:00 SEVEN SEAS NAVIGATOR 2019/37 PAQUEBOT 24/01/2019 E S 3 AMFU
26/01/2019 - 23:59 PAUL GAUGUIN 2018/2373 PAQUEBOT 26/01/2019 E N 1 PMA
28/01/2019 - 18:00 MSY WIND SPIRIT 2019/295 PAQUEBOT 28/01/2019 E N 2 PST
29/01/2019 - 06:00 ALBATROS'''' 2019/30 PAQUEBOT 29/01/2019 E S 3 TRANSAM POLYNESIE
31/01/2019 - 05:00 CRYSTAL SERENITY 2019/1 PAQUEBOT 31/01/2019 E S 3 PST
01/02/2019 - 05:00 MS MARINA 2019/41 PAQUEBOT 01/02/2019 E S 3 AMFU
02/02/2019 - 23:00 PACIFIC PRINCESS 2019/58 PAQUEBOT 02/02/2019 E S 3 TSMA
07/02/2019 - 18:00 MSY WIND SPIRIT 2019/34 PAQUEBOT 07/02/2019 E N 2 PST
09/02/2019 - 23:59 PAUL GAUGUIN 2019/289 PAQUEBOT 09/02/2019 E N 1 190126 PMA
09/02/2019 - 23:59 PAUL GAUGUIN 2019/180 PAQUEBOT 09/02/2019 E N 1 PMA
10/02/2019 - 05:00 MAASDAM 2019/6 PAQUEBOT 10/02/2019 E S 3 PST
11/02/2019 - 05:00 MS MARINA 2019/42 PAQUEBOT 11/02/2019 E S 3 AMFU
12/02/2019 - 09:00 BOSEI MARU 2019/344 DIVERS 12/02/2019 E N 2 AMFU
14/02/2019 - 18:00 MSY WIND SPIRIT 2019/296 PAQUEBOT 14/02/2019 E N 2 PST
15/02/2019 - 20:00 M/S INSIGNIA 2019/36 PAQUEBOT 15/02/2019 E S 3 AMFU
16/02/2019 - 23:59 PAUL GAUGUIN 2019/185 PAQUEBOT 16/02/2019 E N 1 PMA
21/02/2019 - 06:00 EUROPA 2 2019/18 PAQUEBOT 21/02/2019 E S 3 CMA-CGM PAPEETE
21/02/2019 - 18:00 MSY WIND SPIRIT 2019/297 PAQUEBOT 21/02/2019 E N 2 PST
23/02/2019 - 05:00 MS MARINA 2019/118 PAQUEBOT 23/02/2019 E S 3 AMFU
23/02/2019 - 23:59 PAUL GAUGUIN 2019/190 PAQUEBOT 23/02/2019 E N 1 PMA
25/02/2019 - 18:00 MSC MAGNIFICA 2019/26 PAQUEBOT 25/02/2019 E S 3 TSMA
25/02/2019 - 18:00 COSTA LUMINOSA 2019/146 PAQUEBOT 25/02/2019 E S 3 TSMA
28/02/2019 - 18:00 MSY WIND SPIRIT 2019/298 PAQUEBOT 28/02/2019 E N 2 PST
02/03/2019 - 22:00 MS MARINA 2019/125 PAQUEBOT 02/03/2019 E S 3 AMFU
02/03/2019 - 23:59 PAUL GAUGUIN 2019/195 PAQUEBOT 02/03/2019 E N 1 PMA
07/03/2019 - 18:00 MSY WIND SPIRIT 2019/299 PAQUEBOT 07/03/2019 E N 2 PST
08/03/2019 - 05:00 CRYSTAL SYMPHONY 2019/24 PAQUEBOT 08/03/2019 E S 3 PST
09/03/2019 - 23:59 PAUL GAUGUIN 2019/201 PAQUEBOT 09/03/2019 E N 1 PMA
13/03/2019 - 20:00 OCEAN DREAM' 2019/25 PAQUEBOT 13/03/2019 E S 3 AMITAHITI
14/03/2019 - 18:00 MSY WIND SPIRIT 2019/300 PAQUEBOT 14/03/2019 E N 2 PST
16/03/2019 - 18:00 M/S REGATTA 2019/35 PAQUEBOT 16/03/2019 E S 3 AMFU
20/03/2019 - 23:59 PAUL GAUGUIN 2019/206 PAQUEBOT 20/03/2019 E N 1 PMA
23/03/2019 - 06:00 AMADEA M/S 2019/31 PAQUEBOT 23/03/2019 E S 3 TRANSAM POLYNESIE
27/03/2019 - 23:59 EURODAM 2019/45 PAQUEBOT 27/03/2019 E S 3 PST
30/03/2019 - 23:59 PAUL GAUGUIN 2019/213 PAQUEBOT 30/03/2019 E N 1 PMA
04/04/2019 - 18:00 MSY WIND SPIRIT 2019/301 PAQUEBOT 04/04/2019 E N 2 PST
06/04/2019 - 23:59 PAUL GAUGUIN 2019/218 PAQUEBOT 06/04/2019 E N 1 PMA
11/04/2019 - 18:00 MSY WIND SPIRIT 2019/302 PAQUEBOT 11/04/2019 E N 2 PST
11/04/2019 - 23:00 CARNIVAL LEGEND 2019/75 PAQUEBOT 11/04/2019 E S 3 TSMA
13/04/2019 - 23:59 PAUL GAUGUIN 2019/223 PAQUEBOT 13/04/2019 E N 1 PMA
18/04/2019 - 04:00 STAR PRINCESS 2019/32 PAQUEBOT 18/04/2019 E S 3 CMA-CGM PAPEETE
18/04/2019 - 18:00 MSY WIND SPIRIT 2019/303 PAQUEBOT 18/04/2019 E N 2 PST
19/04/2019 - 04:00 EMERALD PRINCESS 2019/7 PAQUEBOT 19/04/2019 E S 3 TSMA
21/04/2019 - 05:00 GOLDEN PRINCESS 2019/14 PAQUEBOT 21/04/2019 E N 1 TSMA
21/04/2019 - 20:00 ISLAND SKY 2019/284 PAQUEBOT 21/04/2019 E N 2 GBSA
21/04/2019 - 23:59 CELEBRITY SOLSTICE 2019/38 PAQUEBOT 21/04/2019 E S 3 AMFU
24/04/2019 - 23:59 MAASDAM 2019/51 PAQUEBOT 24/04/2019 E N 1 PST
24/04/2019 - 23:59 OVATION OF THE SEAS 2019/143 PAQUEBOT 24/04/2019 E S 3 AMFU
25/04/2019 - 18:00 MSY WIND SPIRIT 2019/304 PAQUEBOT 25/04/2019 E N 2 PST
27/04/2019 - 23:59 PAUL GAUGUIN 2019/233 PAQUEBOT 27/04/2019 E N 1 PMA
27/04/2019 - 23:59 RADIANCE OF THE SEAS 2019/55 PAQUEBOT 27/04/2019 E S 3 AMFU
02/05/2019 - 18:00 MSY WIND SPIRIT 2019/345 PAQUEBOT 02/05/2019 E N 2 PST
03/05/2019 - 04:00 SEA PRINCESS 2019/15 PAQUEBOT 03/05/2019 E S 3 TSMA
04/05/2019 - 17:00 PAUL GAUGUIN 2019/238 PAQUEBOT 04/05/2019 E N 1 PMA
13/05/2019 - 18:00 MSY WIND SPIRIT 2019/346 PAQUEBOT 13/05/2019 E N 2 PST
18/05/2019 - 23:59 PAUL GAUGUIN 2019/245 PAQUEBOT 18/05/2019 E N 1 PMA
20/05/2019 - 18:00 MSY WIND SPIRIT 2019/347 PAQUEBOT 20/05/2019 E N 2 PST
25/05/2019 - 23:59 PAUL GAUGUIN 2019/250 PAQUEBOT 25/05/2019 E N 1 PMA
30/05/2019 - 18:00 MSY WIND SPIRIT 2019/348 PAQUEBOT 30/05/2019 E N 2 PST
01/06/2019 - 23:59 PAUL GAUGUIN 2019/255 PAQUEBOT 01/06/2019 E N 1 PMA
06/06/2019 - 18:00 MSY WIND SPIRIT 2019/349 PAQUEBOT 06/06/2019 E N 2 PST
08/06/2019 - 23:59 PAUL GAUGUIN 2019/260 PAQUEBOT 08/06/2019 E N 1 PMA
15/06/2019 - 23:59 PAUL GAUGUIN 2019/265 PAQUEBOT 15/06/2019 E N 1 PMA
26/06/2019 - 22:00 PAUL GAUGUIN 2019/270 PAQUEBOT 26/06/2019 E N 1 PMA
06/07/2019 - 23:00 OCEAN DREAM' 2019/39 PAQUEBOT 06/07/2019 E S 3 AMITAHITI
10/07/2019 - 23:59 PAUL GAUGUIN 2019/276 PAQUEBOT 10/07/2019 E N 1 PMA
20/07/2019 - 23:59 PAUL GAUGUIN 2019/283 PAQUEBOT 20/07/2019 E N 1 PMA
18/08/2019 - 21:00 SEA PRINCESS 2019/132 PAQUEBOT 18/08/2019 E S 3 TSMA
22/09/2019 - 04:00 SEA PRINCESS 2019/62 PAQUEBOT 22/09/2019 E S 3 TSMA
27/09/2019 - 22:00 RADIANCE OF THE SEAS 2019/150 PAQUEBOT 27/09/2019 E S 3 AMFU
30/09/2019 - 21:00 CELEBRITY SOLSTICE 2019/141 PAQUEBOT 30/09/2019 E S 3 AMFU
07/10/2019 - 05:00 RUBY PRINCESS 2019/81 PAQUEBOT 07/10/2019 E S 3 TSMA
07/10/2019 - 20:00 COLUMBUS 2019/131 PAQUEBOT 07/10/2019 E N 1 070218 CMA-CGM PAPEETE
08/10/2019 - 22:00 OVATION OF THE SEAS 2019/153 PAQUEBOT 08/10/2019 E S 3 AMFU
10/10/2019 - 21:00 GOLDEN PRINCESS 2019/60 PAQUEBOT 10/10/2019 E S 3 TSMA
10/10/2019 - 23:59 CARNIVAL LEGEND 2019/78 PAQUEBOT 10/10/2019 E S 3 TSMA
16/11/2019 - 20:00 MV PACIFIC EDEN 2019/286 PAQUEBOT 16/11/2019 E S 3 CMA-CGM PAPEETE
17/11/2019 - 21:00 M/S REGATTA 2019/157 PAQUEBOT 17/11/2019 E S 3 AMFU
16/12/2019 - 22:00 AIDAAURA 2019/147 PAQUEBOT 16/12/2019 E S 3 TSMA
17/12/2019 - 19:00 COSTA ATLANTICA 2019/291 PAQUEBOT 17/12/2019 E S 3 TSMA
24/12/2019 - 05:00 SEVEN SEAS NAVIGATOR 2019/69 PAQUEBOT 24/12/2019 E S 3 AMFU
03/01/2020 - 21:00 SEVEN SEAS NAVIGATOR 2020/9 PAQUEBOT 03/01/2020 E S 3 AMFU
15/01/2020 - 18:00 VIKING STAR 2020/27 PAQUEBOT 15/01/2020 E S 3 TSMA
30/01/2020 - 06:00 ALBATROS'''' 2020/35 PAQUEBOT 30/01/2020 E S 3 TRANSAM POLYNESIE
30/01/2020 - 06:00 ALBATROS'''' 2020/29 PAQUEBOT 30/01/2020 E S 3 TRANSAM POLYNESIE
05/02/2020 - 18:00 CRYSTAL SERENITY 2020/62 PAQUEBOT 05/02/2020 E S 3 PST
11/02/2020 - 21:00 SEVEN SEAS MARINER 2020/5 PAQUEBOT 11/02/2020 E S 3 AMFU
20/02/2020 - 04:00 EMERALD PRINCESS 2020/65 PAQUEBOT 20/02/2020 E S 3 TSMA
28/02/2020 - 18:00 MSC MAGNIFICA 2020/1 PAQUEBOT 28/02/2020 E S 3 TSMA
01/03/2020 - 23:00 SILVER WHISPER 2020/55 PAQUEBOT 01/03/2020 E S 3 CMA-CGM PAPEETE
06/03/2020 - 05:00 M/S REGATTA 2020/78 PAQUEBOT 06/03/2020 E S 3 AMFU
16/03/2020 - 05:00 M/S REGATTA 2020/85 PAQUEBOT 16/03/2020 E S 3 AMFU
22/03/2020 - 21:00 SOLEAL 2020/110 PAQUEBOT 22/03/2020 E S 3 CMA-CGM PAPEETE
26/03/2020 - 05:00 M/S REGATTA 2020/92 PAQUEBOT 26/03/2020 E S 3 AMFU
28/03/2020 - 17:00 ARTANIA 2020/41 PAQUEBOT 28/03/2020 E S 3 TRANSAM POLYNESIE
29/03/2020 - 05:00 SEVEN SEAS NAVIGATOR 2020/13 PAQUEBOT 29/03/2020 E S 3 AMFU
05/04/2020 - 05:00 M/S REGATTA 2020/99 PAQUEBOT 05/04/2020 E S 3 AMFU
08/04/2020 - 05:00 SEVEN SEAS NAVIGATOR 2020/20 PAQUEBOT 08/04/2020 E S 3 AMFU
14/04/2020 - 21:00 M/S REGATTA 2020/106 PAQUEBOT 14/04/2020 E S 3 AMFU
19/04/2020 - 04:00 RUBY PRINCESS 2020/50 PAQUEBOT 19/04/2020 E S 3 TSMA
23/04/2020 - 04:00 GOLDEN PRINCESS 2020/47 PAQUEBOT 23/04/2020 E S 3 TSMA
27/04/2020 - 23:59 RADIANCE OF THE SEAS 2020/70 PAQUEBOT 27/04/2020 E S 3 AMFU
29/04/2020 - 23:59 OVATION OF THE SEAS 2020/73 PAQUEBOT 29/04/2020 E S 3 AMFU
30/04/2020 - 04:00 ISLAND PRINCESS 2020/69 PAQUEBOT 30/04/2020 E S 3 TSMA
01/05/2020 - 04:00 SEA PRINCESS 2020/43 PAQUEBOT 01/05/2020 E S 3 TSMA
01/05/2020 - 04:00 SEA PRINCESS 2020/30 PAQUEBOT 01/05/2020 E S 3 TSMA
03/05/2020 - 22:00 CELEBRITY SOLSTICE 2020/52 PAQUEBOT 03/05/2020 E S 3 AMFU
14/07/2020 - 22:00 GOLDEN PRINCESS 2020/67 PAQUEBOT 14/07/2020 E S 3 TSMA
25/04/2021 - 17:00 EMERALD PRINCESS 2021/1 PAQUEBOT 25/04/2021 E S 3 TSMA
25/04/2022 - 17:00 EMERALD PRINCESS 2022/1 PAQUEBOT 25/04/2022 E S 3 TSMA
24/04/2023 - 17:00 EMERALD PRINCESS 2023/1 PAQUEBOT 24/04/2023 E S 3 TSMA

port-icon  Le port

Capitainerie

En savoir +

visuel

Services

En savoir +

visuel

Nos partenaires

En savoir +

visuel

Plaisance

En savoir +

visuel

Médiathèque

En savoir +

visuel

 

projet-iconProjets

Passage sous le pont de Motu Uta fermé

+
De mai à décembre 2018 : passage sous le pont fermé

Attention, prolongation des travaux au Terminal de commerce international !

+
Prolongation Travaux Terminal de  commerce international

Découvrez l’aménagement prévu pour l’esplanade Jacques Chirac à Papeete

+
Amenagement Esplanade Jacques Chirac

Travaux au Terminal de commerce international : changements de circulation à prévoir

+
Travaux Terminal de  commerce international